Time;durP1;ratioP1;P1;durP2;ratioP2;P2;SDS_P1;SDS_P2;PMS_P1;PMS_P2;Temp;Humidity;BMP_temperature;BMP_pressure;BME280_temperature;BME280_humidity;BME280_pressure;Samples;Min_cycle;Max_cycle;Signal;HPM_P1;HPM_P2
2022/01/23 00:00:45;;;;;;;12.38;5.20;;;5.40;99.90;;;;;;4911532;29;20342;-84
2022/01/23 00:03:17;;;;;;;11.57;4.68;;;5.40;99.90;;;;;;4898704;29;20160;-85
2022/01/23 00:05:48;;;;;;;11.93;4.97;;;5.40;99.90;;;;;;4897375;29;20028;-86
2022/01/23 00:08:18;;;;;;;12.13;5.03;;;5.40;99.90;;;;;;4897300;29;20024;-86
2022/01/23 00:10:43;;;;;;;13.00;4.80;;;5.40;99.90;;;;;;4912485;29;20040;-87
2022/01/23 00:18:22;;;;;;;14.73;4.85;;;5.40;99.90;;;;;;4898208;29;20108;-86
2022/01/23 00:20:49;;;;;;;13.30;5.07;;;5.40;99.90;;;;;;4897146;29;20024;-86
2022/01/23 00:23:29;;;;;;;11.77;4.65;;;5.40;99.90;;;;;;4912774;29;20039;-86
2022/01/23 00:31:24;;;;;;;14.90;6.07;;;5.40;99.90;;;;;;4898191;29;20059;-85
2022/01/23 00:33:54;;;;;;;13.75;4.93;;;5.40;99.90;;;;;;4896609;29;20121;-86
2022/01/23 00:36:20;;;;;;;14.75;5.70;;;5.40;99.90;;;;;;4912358;29;20016;-86
2022/01/23 00:38:45;;;;;;;12.07;5.13;;;5.40;99.90;;;;;;4912735;29;20032;-86
2022/01/23 00:41:11;;;;;;;13.48;5.15;;;5.40;99.90;;;;;;4913675;29;20159;-86
2022/01/23 00:43:41;;;;;;;15.13;4.65;;;5.40;99.90;;;;;;4916226;29;20029;-86
2022/01/23 00:49:24;;;;;;;12.90;5.40;;;5.40;99.90;;;;;;4915306;29;20033;-86
2022/01/23 00:51:41;;;;;;;14.98;5.47;;;5.40;99.90;;;;;;4901535;29;20044;-86
2022/01/23 00:54:11;;;;;;;13.43;5.18;;;5.40;99.90;;;;;;4916794;29;20385;-86
2022/01/23 00:56:37;;;;;;;13.00;5.88;;;5.40;99.90;;;;;;4901461;29;20024;-86
2022/01/23 00:59:04;;;;;;;13.50;5.72;;;5.40;99.90;;;;;;4902789;29;20028;-86
2022/01/23 01:01:33;;;;;;;14.02;5.40;;;5.40;99.90;;;;;;4902307;29;20428;-86
2022/01/23 01:03:58;;;;;;;19.33;5.80;;;5.40;99.90;;;;;;4901874;29;20047;-86
2022/01/23 01:06:24;;;;;;;17.02;5.82;;;5.40;99.90;;;;;;4902104;29;20449;-86
2022/01/23 01:08:51;;;;;;;12.65;5.32;;;5.40;99.90;;;;;;4916560;29;20024;-86
2022/01/23 01:30:25;;;;;;;16.67;6.15;;;5.40;99.90;;;;;;4913684;29;20132;-85
2022/01/23 01:33:11;;;;;;;13.82;5.40;;;5.40;99.90;;;;;;4899547;29;20043;-86
2022/01/23 01:35:51;;;;;;;12.65;6.18;;;5.40;99.90;;;;;;4901824;29;20052;-86
2022/01/23 01:38:17;;;;;;;13.82;5.95;;;5.40;99.90;;;;;;4901126;29;20039;-85
2022/01/23 01:40:43;;;;;;;17.40;6.18;;;5.40;99.90;;;;;;4915297;29;20452;-85
2022/01/23 01:43:08;;;;;;;13.57;6.65;;;5.40;99.90;;;;;;4901466;29;20498;-85
2022/01/23 01:45:35;;;;;;;17.83;6.47;;;5.40;99.90;;;;;;4899917;29;20025;-85
2022/01/23 01:48:02;;;;;;;14.18;6.28;;;5.40;99.90;;;;;;4899230;29;20024;-86
2022/01/23 01:50:30;;;;;;;14.00;5.68;;;5.40;99.90;;;;;;4900534;29;20027;-85
2022/01/23 01:52:56;;;;;;;13.07;6.10;;;5.40;99.90;;;;;;4898223;29;20100;-86
2022/01/23 01:55:27;;;;;;;14.13;6.00;;;5.40;99.90;;;;;;4915598;29;20063;-86
2022/01/23 01:58:00;;;;;;;16.00;6.53;;;5.40;99.90;;;;;;4899666;29;20055;-85
2022/01/23 02:08:28;;;;;;;17.77;5.90;;;5.40;99.90;;;;;;4912786;29;20043;-85
2022/01/23 02:11:02;;;;;;;16.88;6.32;;;5.40;99.90;;;;;;4914960;29;20040;-85
2022/01/23 02:13:35;;;;;;;15.38;6.57;;;5.40;99.90;;;;;;4900696;29;20032;-85
2022/01/23 02:16:30;;;;;;;17.00;6.10;;;5.40;99.90;;;;;;4914820;29;20033;-85
2022/01/23 02:56:45;;;;;;;16.77;7.32;;;5.40;99.90;;;;;;4914059;29;20376;-86
2022/01/23 02:59:20;;;;;;;15.45;7.03;;;5.40;99.90;;;;;;4898778;29;20017;-85
2022/01/23 03:02:08;;;;;;;17.63;7.03;;;5.40;99.90;;;;;;4898113;29;20112;-86
2022/01/23 03:04:37;;;;;;;18.08;7.35;;;5.40;99.90;;;;;;4913810;29;20020;-86
2022/01/23 03:15:05;;;;;;;14.90;6.43;;;5.30;99.90;;;;;;4913903;29;20037;-86
2022/01/23 03:26:14;;;;;;;16.38;7.78;;;5.30;99.90;;;;;;4901177;29;20075;-86
2022/01/23 03:29:04;;;;;;;15.38;7.18;;;5.30;99.90;;;;;;4900981;29;20059;-86
2022/01/23 03:34:09;;;;;;;17.65;7.50;;;5.40;99.90;;;;;;4913604;29;20111;-86
2022/01/23 03:36:37;;;;;;;17.15;7.28;;;5.40;99.90;;;;;;4898309;29;20039;-85
2022/01/23 03:39:10;;;;;;;21.33;8.20;;;5.40;99.90;;;;;;4913216;29;20112;-86
2022/01/23 03:41:41;;;;;;;16.70;7.47;;;5.40;99.90;;;;;;4899412;29;20111;-86
2022/01/23 03:44:09;;;;;;;16.33;7.65;;;5.30;99.90;;;;;;4898855;29;20028;-86
2022/01/23 03:47:01;;;;;;;15.38;6.88;;;5.30;99.90;;;;;;4912706;29;20025;-86
2022/01/23 03:49:32;;;;;;;17.17;7.20;;;5.30;99.90;;;;;;4899413;29;20033;-85
2022/01/23 03:52:03;;;;;;;17.63;7.18;;;5.30;99.90;;;;;;4912931;29;20037;-85
2022/01/23 03:54:29;;;;;;;17.42;7.72;;;5.30;99.90;;;;;;4897219;29;20173;-85
2022/01/23 03:56:57;;;;;;;17.90;7.57;;;5.30;99.90;;;;;;4898701;29;20084;-86
2022/01/23 03:59:23;;;;;;;22.15;8.45;;;5.30;99.90;;;;;;4898537;29;20031;-85
2022/01/23 04:01:49;;;;;;;19.25;7.72;;;5.40;99.90;;;;;;4897096;29;20024;-86
2022/01/23 04:06:59;;;;;;;18.20;7.53;;;5.30;99.90;;;;;;4898440;29;20043;-86
2022/01/23 04:09:24;;;;;;;16.70;7.28;;;5.30;99.90;;;;;;4898357;29;20028;-85
2022/01/23 04:11:51;;;;;;;18.63;7.32;;;5.30;99.90;;;;;;4896900;29;20043;-85
2022/01/23 04:14:18;;;;;;;18.58;7.55;;;5.30;99.90;;;;;;4897144;29;20028;-85
2022/01/23 04:45:11;;;;;;;18.98;7.75;;;5.30;99.90;;;;;;4898784;29;20131;-86
2022/01/23 05:00:33;;;;;;;16.77;7.60;;;5.30;99.90;;;;;;4897825;29;20391;-85
2022/01/23 05:03:52;;;;;;;21.30;7.65;;;5.20;99.90;;;;;;4896766;29;20406;-86
2022/01/23 05:06:00;;;;;;;14.35;7.05;;;5.20;99.90;;;;;;4908399;29;20463;-86
2022/01/23 05:08:29;;;;;;;15.75;7.25;;;5.20;99.90;;;;;;4912223;29;20024;-85
2022/01/23 05:10:58;;;;;;;15.27;7.10;;;5.30;99.90;;;;;;4896394;29;20025;-85
2022/01/23 05:13:26;;;;;;;17.48;7.20;;;5.30;99.90;;;;;;4912981;29;20365;-85
2022/01/23 05:15:51;;;;;;;19.05;7.75;;;5.30;99.90;;;;;;4914819;29;20049;-85
2022/01/23 05:18:17;;;;;;;14.63;7.43;;;5.30;99.90;;;;;;4913823;29;20036;-84
2022/01/23 05:20:44;;;;;;;17.25;7.45;;;5.30;99.90;;;;;;4912529;29;20089;-85
2022/01/23 05:23:10;;;;;;;15.93;7.95;;;5.30;99.90;;;;;;4911896;29;20162;-85
2022/01/23 05:25:37;;;;;;;15.38;7.30;;;5.20;99.90;;;;;;4912398;29;20032;-86
2022/01/23 05:28:03;;;;;;;14.48;6.88;;;5.30;99.90;;;;;;4914242;29;20052;-86
2022/01/23 05:30:29;;;;;;;15.55;6.55;;;5.30;99.90;;;;;;4900128;29;20461;-86
2022/01/23 05:32:57;;;;;;;18.70;7.97;;;5.30;99.90;;;;;;4900384;29;20108;-86
2022/01/23 05:35:24;;;;;;;14.77;7.13;;;5.30;99.90;;;;;;4915151;29;20059;-85
2022/01/23 05:37:50;;;;;;;15.40;6.97;;;5.30;99.90;;;;;;4915443;29;20044;-85
2022/01/23 05:40:18;;;;;;;14.60;6.63;;;5.20;99.90;;;;;;4915625;29;20476;-85
2022/01/23 05:42:44;;;;;;;16.60;6.70;;;5.30;99.90;;;;;;4901108;29;20032;-86
2022/01/23 05:45:10;;;;;;;14.68;6.28;;;5.20;99.90;;;;;;4900738;29;20377;-85
2022/01/23 05:47:36;;;;;;;14.23;6.13;;;5.30;99.90;;;;;;4915484;29;20111;-85
2022/01/23 05:50:04;;;;;;;16.08;6.60;;;5.30;99.90;;;;;;4900539;29;20497;-85
2022/01/23 05:52:31;;;;;;;12.95;5.82;;;5.20;99.90;;;;;;4900425;29;20029;-85
2022/01/23 05:54:57;;;;;;;16.15;6.72;;;5.20;99.90;;;;;;4915201;29;20041;-85
2022/01/23 05:57:22;;;;;;;13.85;6.40;;;5.20;99.90;;;;;;4915347;29;20029;-85
2022/01/23 05:59:48;;;;;;;15.75;7.00;;;5.20;99.90;;;;;;4915066;29;20024;-85
2022/01/23 06:02:14;;;;;;;15.40;7.00;;;5.30;99.90;;;;;;4914722;29;20045;-85
2022/01/23 06:04:39;;;;;;;12.63;6.18;;;5.20;99.90;;;;;;4914947;29;20525;-86
2022/01/23 06:07:05;;;;;;;22.75;11.13;;;5.20;99.90;;;;;;4914595;29;20512;-86
2022/01/23 06:09:31;;;;;;;19.05;9.07;;;5.20;99.90;;;;;;4914705;29;20373;-86
2022/01/23 06:11:56;;;;;;;21.90;10.77;;;5.30;99.90;;;;;;4900316;29;20055;-86
2022/01/23 06:14:22;;;;;;;15.90;8.02;;;5.20;99.90;;;;;;4899166;29;20365;-86
2022/01/23 06:16:47;;;;;;;13.90;5.93;;;5.20;99.90;;;;;;4914600;29;20033;-86
2022/01/23 06:19:14;;;;;;;14.13;6.28;;;5.30;99.90;;;;;;4898974;29;20033;-86
2022/01/23 06:21:39;;;;;;;14.52;6.55;;;5.30;99.90;;;;;;4914767;29;20150;-86
2022/01/23 06:24:22;;;;;;;16.25;6.97;;;5.30;99.90;;;;;;4898922;29;20056;-86
2022/01/23 06:26:50;;;;;;;14.93;6.57;;;5.20;99.90;;;;;;4899193;29;20050;-86
2022/01/23 06:29:17;;;;;;;13.10;7.00;;;5.30;99.90;;;;;;4899605;29;20095;-86
2022/01/23 06:31:46;;;;;;;13.80;5.93;;;5.30;99.90;;;;;;4914466;29;20043;-86
2022/01/23 06:34:12;;;;;;;15.73;6.60;;;5.30;99.90;;;;;;4898981;29;20390;-85
2022/01/23 06:36:38;;;;;;;14.23;6.65;;;5.30;99.90;;;;;;4914097;29;20041;-86
2022/01/23 06:39:07;;;;;;;13.95;6.68;;;5.30;99.90;;;;;;4898104;29;20048;-85
2022/01/23 06:41:33;;;;;;;18.65;8.73;;;5.30;99.90;;;;;;4914269;29;20050;-86
2022/01/23 06:43:59;;;;;;;17.50;8.38;;;5.30;99.90;;;;;;4914524;29;20044;-86
2022/01/23 06:46:25;;;;;;;17.30;8.38;;;5.20;99.90;;;;;;4899959;29;20036;-85
2022/01/23 06:48:51;;;;;;;14.88;6.97;;;5.20;99.90;;;;;;4914342;29;20040;-85
2022/01/23 06:51:17;;;;;;;18.38;6.72;;;5.20;99.90;;;;;;4899564;29;20389;-85
2022/01/23 06:53:43;;;;;;;16.30;6.43;;;5.20;99.90;;;;;;4914864;29;20389;-85
2022/01/23 06:56:08;;;;;;;13.55;6.03;;;5.20;99.90;;;;;;4914118;29;20075;-86
2022/01/23 06:58:34;;;;;;;15.30;6.05;;;5.20;99.90;;;;;;4897972;29;20529;-86
2022/01/23 07:01:00;;;;;;;15.00;6.35;;;5.20;99.90;;;;;;4914253;29;20060;-86
2022/01/23 07:03:26;;;;;;;12.82;6.45;;;5.20;99.90;;;;;;4898492;29;20035;-86
2022/01/23 07:05:51;;;;;;;15.27;6.60;;;5.20;99.90;;;;;;4898405;29;20020;-87
2022/01/23 07:08:20;;;;;;;14.02;6.43;;;5.20;99.90;;;;;;4914390;29;20036;-86
2022/01/23 07:10:46;;;;;;;15.32;7.45;;;5.20;99.90;;;;;;4913745;29;20079;-86
2022/01/23 07:13:11;;;;;;;13.40;6.57;;;5.20;99.90;;;;;;4898155;29;20029;-84
2022/01/23 07:15:37;;;;;;;15.38;7.03;;;5.20;99.90;;;;;;4913737;29;20168;-84
2022/01/23 07:18:03;;;;;;;21.63;7.07;;;5.20;99.90;;;;;;4913793;29;20024;-86
2022/01/23 07:20:36;;;;;;;16.58;6.95;;;5.20;99.90;;;;;;4913823;29;20024;-86
2022/01/23 07:23:02;;;;;;;15.63;6.50;;;5.30;99.90;;;;;;4897964;29;20029;-86
2022/01/23 07:25:27;;;;;;;24.77;11.75;;;5.20;99.90;;;;;;4913399;29;20029;-86
2022/01/23 07:27:57;;;;;;;16.25;7.47;;;5.20;99.90;;;;;;4913472;29;20072;-86
2022/01/23 07:32:57;;;;;;;16.90;6.70;;;5.20;99.90;;;;;;4912933;29;20055;-87
2022/01/23 07:35:25;;;;;;;15.63;6.90;;;5.20;99.90;;;;;;4899045;29;20136;-86
2022/01/23 07:37:51;;;;;;;13.90;7.10;;;5.20;99.90;;;;;;4898514;29;20065;-86
2022/01/23 07:40:17;;;;;;;14.48;6.63;;;5.30;99.90;;;;;;4913209;29;20037;-85
2022/01/23 07:42:42;;;;;;;13.77;6.93;;;5.20;99.90;;;;;;4898971;29;20036;-86
2022/01/23 07:45:09;;;;;;;16.20;7.70;;;5.20;99.90;;;;;;4898792;29;20159;-86
2022/01/23 07:47:34;;;;;;;17.10;7.40;;;5.30;99.90;;;;;;4913020;29;20446;-84
2022/01/23 07:50:03;;;;;;;18.38;6.93;;;5.20;99.90;;;;;;4912699;29;20052;-85
2022/01/23 07:52:35;;;;;;;13.82;6.68;;;5.30;99.90;;;;;;4912309;29;20041;-84
2022/01/23 07:55:06;;;;;;;16.70;7.32;;;5.30;99.90;;;;;;4912094;29;20021;-84
2022/01/23 07:57:32;;;;;;;16.00;7.38;;;5.30;99.90;;;;;;4912203;29;20032;-85
2022/01/23 07:59:59;;;;;;;15.02;7.00;;;5.30;99.90;;;;;;4896022;29;20389;-85
2022/01/23 08:02:25;;;;;;;16.98;7.30;;;5.30;99.90;;;;;;4896917;29;20037;-83
2022/01/23 08:04:50;;;;;;;14.32;7.15;;;5.30;99.90;;;;;;4898386;29;20040;-84
2022/01/23 08:07:31;;;;;;;14.57;6.40;;;5.30;99.90;;;;;;4896424;29;20035;-86
2022/01/23 08:10:08;;;;;;;13.90;6.57;;;5.30;99.90;;;;;;4897863;29;20519;-84
2022/01/23 08:12:35;;;;;;;40.13;20.80;;;5.30;99.90;;;;;;4912051;29;20131;-82
2022/01/23 08:15:02;;;;;;;21.35;10.13;;;5.40;99.90;;;;;;4897566;29;20072;-84
2022/01/23 08:17:28;;;;;;;16.17;7.50;;;5.30;99.90;;;;;;4897880;29;20160;-84
2022/01/23 08:19:59;;;;;;;16.77;9.18;;;5.40;99.90;;;;;;4912376;29;20119;-84
2022/01/23 08:22:28;;;;;;;21.90;10.23;;;5.40;99.90;;;;;;4912062;29;20028;-83
2022/01/23 08:24:56;;;;;;;15.90;7.45;;;5.40;99.90;;;;;;4896764;29;20035;-86
2022/01/23 08:27:23;;;;;;;14.60;6.75;;;5.40;99.90;;;;;;4896752;29;20024;-84
2022/01/23 08:29:51;;;;;;;14.00;6.50;;;5.40;99.90;;;;;;4897705;29;20486;-84
2022/01/23 08:32:17;;;;;;;14.60;6.68;;;5.40;99.90;;;;;;4896164;29;20052;-84
2022/01/23 08:34:43;;;;;;;15.80;7.18;;;5.50;99.90;;;;;;4897972;29;20048;-85
2022/01/23 08:37:09;;;;;;;14.68;6.55;;;5.50;99.90;;;;;;4896150;29;20108;-83
2022/01/23 08:39:37;;;;;;;13.13;6.50;;;5.50;99.90;;;;;;4896839;29;20048;-83
2022/01/23 08:42:11;;;;;;;16.25;6.57;;;5.50;99.90;;;;;;4896406;29;20059;-85
2022/01/23 08:44:38;;;;;;;17.40;6.00;;;5.50;99.90;;;;;;4897440;29;20028;-86
2022/01/23 08:47:05;;;;;;;16.42;6.25;;;5.60;99.90;;;;;;4896113;29;20025;-86
2022/01/23 08:49:31;;;;;;;14.85;6.28;;;5.60;99.90;;;;;;4911585;29;20029;-87
2022/01/23 08:51:58;;;;;;;14.57;7.80;;;5.60;99.90;;;;;;4895955;29;20045;-86
2022/01/23 08:54:27;;;;;;;13.65;6.35;;;5.60;99.90;;;;;;4911809;29;20025;-84
2022/01/23 08:56:53;;;;;;;15.13;6.88;;;5.70;99.90;;;;;;4895980;29;20076;-82
2022/01/23 08:59:19;;;;;;;19.35;9.93;;;5.70;99.90;;;;;;4897504;29;20029;-84
2022/01/23 09:01:46;;;;;;;14.68;6.07;;;5.70;99.90;;;;;;4911972;29;20041;-83
2022/01/23 09:04:15;;;;;;;13.30;6.20;;;5.70;99.90;;;;;;4915153;29;20132;-83
2022/01/23 09:06:42;;;;;;;12.73;5.47;;;5.80;99.90;;;;;;4915485;29;20025;-83
2022/01/23 09:09:15;;;;;;;16.00;5.57;;;5.80;99.90;;;;;;4899405;29;20123;-84
2022/01/23 09:11:53;;;;;;;14.05;5.80;;;5.90;99.90;;;;;;4899526;29;20378;-84
2022/01/23 09:14:20;;;;;;;18.60;5.22;;;5.90;99.90;;;;;;4915856;29;20098;-84
2022/01/23 09:16:46;;;;;;;12.57;4.93;;;5.90;99.90;;;;;;4899102;29;20495;-85
2022/01/23 09:19:12;;;;;;;12.93;5.53;;;5.90;99.90;;;;;;4899266;29;20025;-84
2022/01/23 09:21:39;;;;;;;10.48;5.00;;;6.00;99.90;;;;;;4898892;29;20101;-85
2022/01/23 09:24:06;;;;;;;12.45;5.30;;;6.00;99.90;;;;;;4899054;29;20032;-86
2022/01/23 09:26:34;;;;;;;10.93;5.03;;;6.00;99.90;;;;;;4915505;29;20460;-85
2022/01/23 09:29:01;;;;;;;10.75;5.20;;;6.00;99.90;;;;;;4916590;29;20100;-83
2022/01/23 09:31:48;;;;;;;13.32;5.85;;;6.10;99.90;;;;;;4916541;29;20037;-84
2022/01/23 09:34:18;;;;;;;13.43;5.65;;;6.10;99.90;;;;;;4901621;29;20132;-85
2022/01/23 09:36:47;;;;;;;18.38;8.25;;;6.10;99.90;;;;;;4900492;29;20033;-85
2022/01/23 09:39:15;;;;;;;18.35;9.73;;;6.20;99.90;;;;;;4914525;29;20024;-84
2022/01/23 09:41:57;;;;;;;17.67;8.52;;;6.30;99.90;;;;;;4915347;29;20032;-84
2022/01/23 09:44:28;;;;;;;14.48;6.90;;;6.30;99.90;;;;;;4899598;29;20398;-82
2022/01/23 09:46:57;;;;;;;16.73;7.20;;;6.30;99.90;;;;;;4899198;29;20418;-83
2022/01/23 09:49:29;;;;;;;16.42;6.65;;;6.40;99.90;;;;;;4914545;29;20021;-83
2022/01/23 09:51:58;;;;;;;16.70;7.38;;;6.50;99.90;;;;;;4914167;29;20507;-82
2022/01/23 09:54:24;;;;;;;17.23;7.22;;;6.60;99.90;;;;;;4898302;29;20032;-82
2022/01/23 09:56:50;;;;;;;16.75;7.82;;;6.60;99.90;;;;;;4913973;29;20100;-84
2022/01/23 09:59:16;;;;;;;16.80;8.25;;;6.70;99.90;;;;;;4898959;29;20044;-84
2022/01/23 10:01:53;;;;;;;18.55;8.15;;;6.70;99.90;;;;;;4914061;29;20120;-86
2022/01/23 10:04:19;;;;;;;20.67;8.25;;;6.70;99.90;;;;;;4898754;29;20029;-82
2022/01/23 10:06:44;;;;;;;18.10;8.95;;;6.80;99.90;;;;;;4898053;29;20510;-82
2022/01/23 10:09:10;;;;;;;20.67;8.32;;;6.80;99.90;;;;;;4898279;29;20025;-82
2022/01/23 10:11:39;;;;;;;20.80;8.88;;;6.80;99.90;;;;;;4914455;29;20592;-89
2022/01/23 10:14:06;;;;;;;30.17;12.38;;;6.80;99.90;;;;;;4897711;29;20116;-82
2022/01/23 10:16:32;;;;;;;18.40;9.20;;;6.90;99.90;;;;;;4914663;29;20040;-83
2022/01/23 10:18:59;;;;;;;18.13;8.20;;;6.90;99.90;;;;;;4914751;29;20051;-80
2022/01/23 10:21:25;;;;;;;18.13;7.82;;;7.00;99.90;;;;;;4899913;29;20104;-82
2022/01/23 10:23:55;;;;;;;17.90;8.05;;;7.00;99.90;;;;;;4917278;29;20064;-83
2022/01/23 10:26:56;;;;;;;17.13;7.63;;;7.10;99.90;;;;;;4900872;29;20047;-83
2022/01/23 10:29:33;;;;;;;17.25;7.68;;;7.10;99.90;;;;;;4899641;29;20041;-83
2022/01/23 10:32:25;;;;;;;18.10;7.68;;;7.20;99.90;;;;;;4899905;29;20037;-83
2022/01/23 10:34:55;;;;;;;14.63;7.35;;;7.20;99.90;;;;;;4900029;29;20044;-82
2022/01/23 10:37:32;;;;;;;16.48;7.15;;;7.30;99.90;;;;;;4898223;29;20072;-82
2022/01/23 10:40:09;;;;;;;19.15;8.48;;;7.30;99.90;;;;;;4899761;29;20111;-83
2022/01/23 10:47:58;;;;;;;11.35;5.35;;;7.40;99.90;;;;;;4911196;29;20156;-82
2022/01/23 10:50:25;;;;;;;10.88;4.88;;;7.50;99.90;;;;;;4899701;29;20025;-82
2022/01/23 10:52:58;;;;;;;23.55;10.82;;;7.50;99.90;;;;;;4899412;29;20040;-82
2022/01/23 10:55:30;;;;;;;14.10;5.70;;;7.60;99.90;;;;;;4898251;29;20120;-83
2022/01/23 10:58:01;;;;;;;;;;;7.60;99.90;;;;;;4898660;29;20047;-82
2022/01/23 11:00:36;;;;;;;12.70;5.13;;;7.50;99.90;;;;;;4913874;29;19915;-86
2022/01/23 11:03:17;;;;;;;10.70;4.95;;;7.50;99.90;;;;;;4897768;29;20112;-80
2022/01/23 11:05:44;;;;;;;11.32;5.05;;;7.40;99.90;;;;;;4899358;29;20021;-80
2022/01/23 11:08:30;;;;;;;12.60;5.55;;;7.50;99.90;;;;;;4897275;29;20502;-81
2022/01/23 11:11:04;;;;;;;12.48;6.10;;;7.40;99.90;;;;;;4898307;29;20028;-82
2022/01/23 11:19:35;;;;;;;10.88;4.90;;;7.50;99.90;;;;;;4899025;29;20476;-80
2022/01/23 11:22:03;;;;;;;12.45;5.40;;;7.40;99.90;;;;;;4899120;29;20025;-83
2022/01/23 11:24:39;;;;;;;10.43;5.00;;;7.40;99.90;;;;;;4912708;29;20128;-83
2022/01/23 11:27:08;;;;;;;13.25;6.25;;;7.50;99.90;;;;;;4898410;29;20092;-83
2022/01/23 11:29:34;;;;;;;11.13;5.15;;;7.40;99.90;;;;;;4897510;29;20473;-83
2022/01/23 11:32:00;;;;;;;9.30;4.82;;;7.40;99.90;;;;;;4897199;29;20469;-84
2022/01/23 11:34:29;;;;;;;14.90;8.50;;;7.40;99.90;;;;;;4898508;29;20057;-83
2022/01/23 11:36:55;;;;;;;11.70;6.40;;;7.40;99.90;;;;;;4897491;29;20029;-83
2022/01/23 11:40:09;;;;;;;12.63;5.47;;;7.40;99.90;;;;;;4897084;29;20027;-83
2022/01/23 11:51:03;;;;;;;8.80;3.78;;;7.40;99.90;;;;;;4910713;29;20032;-84
2022/01/23 11:53:49;;;;;;;5.55;2.10;;;7.50;99.90;;;;;;4896955;29;20033;-83
2022/01/23 11:56:31;;;;;;;4.07;1.27;;;7.60;99.90;;;;;;4898225;29;20029;-83
2022/01/23 11:59:09;;;;;;;3.80;1.13;;;7.70;99.90;;;;;;4898499;29;20107;-83
2022/01/23 12:01:36;;;;;;;4.38;1.73;;;7.80;99.90;;;;;;4912671;29;20036;-84
2022/01/23 12:04:08;;;;;;;4.43;1.63;;;7.70;99.90;;;;;;4897061;29;20052;-83
2022/01/23 12:06:39;;;;;;;4.13;1.35;;;7.70;99.90;;;;;;4912765;29;20035;-82
2022/01/23 12:09:18;;;;;;;3.90;0.90;;;7.70;99.90;;;;;;4897051;29;20028;-82
2022/01/23 12:12:08;;;;;;;4.30;1.15;;;7.70;99.90;;;;;;4912381;29;20051;-82
2022/01/23 12:17:16;;;;;;;5.20;1.83;;;7.60;99.90;;;;;;4912124;29;20484;-83
2022/01/23 12:19:43;;;;;;;4.65;1.77;;;7.60;99.90;;;;;;4896919;29;20033;-82
2022/01/23 12:22:34;;;;;;;4.88;1.52;;;7.60;99.90;;;;;;4897779;29;20032;-83
2022/01/23 12:25:12;;;;;;;4.85;1.65;;;7.60;99.90;;;;;;4897283;29;20445;-83
2022/01/23 12:27:38;;;;;;;5.70;2.28;;;7.60;99.90;;;;;;4897690;29;20381;-83
2022/01/23 12:30:15;;;;;;;5.25;1.75;;;7.60;99.90;;;;;;4912222;29;20060;-82
2022/01/23 12:32:42;;;;;;;5.45;1.52;;;7.60;99.90;;;;;;4912641;29;20127;-82
2022/01/23 12:35:10;;;;;;;4.75;1.27;;;7.60;99.90;;;;;;4912226;29;20476;-83
2022/01/23 12:38:02;;;;;;;5.18;1.30;;;7.50;99.90;;;;;;4895657;29;20319;-84
2022/01/23 12:40:37;;;;;;;4.63;1.60;;;7.50;99.90;;;;;;4912826;29;20457;-83
2022/01/23 12:43:21;;;;;;;5.65;2.38;;;7.50;99.90;;;;;;4912347;29;20039;-83
2022/01/23 12:45:57;;;;;;;6.07;1.70;;;7.50;99.90;;;;;;4912066;29;20064;-83
2022/01/23 12:48:26;;;;;;;9.85;4.35;;;7.40;99.90;;;;;;4897469;29;20040;-83
2022/01/23 12:50:59;;;;;;;7.97;2.65;;;7.50;99.90;;;;;;4897562;29;20017;-82
2022/01/23 12:53:48;;;;;;;5.45;1.90;;;7.50;99.90;;;;;;4896580;29;20480;-82
2022/01/23 12:56:27;;;;;;;5.20;1.83;;;7.40;99.90;;;;;;4912213;29;20029;-82
2022/01/23 12:59:04;;;;;;;5.25;1.73;;;7.40;99.90;;;;;;4897564;29;20032;-82
2022/01/23 13:01:30;;;;;;;4.97;1.52;;;7.40;99.90;;;;;;4898058;29;20063;-83
2022/01/23 13:04:05;;;;;;;9.27;1.63;;;7.40;99.90;;;;;;4911989;29;20159;-83
2022/01/23 13:07:07;;;;;;;4.32;1.45;;;7.40;99.90;;;;;;4897333;29;20457;-83
2022/01/23 13:10:00;;;;;;;5.75;1.55;;;7.40;99.90;;;;;;4891069;29;20124;-83
2022/01/23 13:17:54;;;;;;;5.25;1.85;;;7.30;99.90;;;;;;4897400;29;20485;-83
2022/01/23 13:32:34;;;;;;;5.95;2.40;;;7.40;99.90;;;;;;4897841;29;20120;-86
2022/01/23 13:34:56;;;;;;;6.93;2.55;;;7.30;99.90;;;;;;4896065;29;20055;-84
2022/01/23 13:37:34;;;;;;;7.40;2.83;;;7.30;99.90;;;;;;4897627;29;20029;-87
2022/01/23 13:40:26;;;;;;;6.65;2.70;;;7.30;99.90;;;;;;4896562;29;20039;-86
2022/01/23 13:59:22;;;;;;;5.15;1.77;;;7.40;99.90;;;;;;4900355;29;20037;-81
2022/01/23 14:04:28;;;;;;;5.53;1.40;;;7.30;99.90;;;;;;4900462;29;20033;-82
2022/01/23 14:06:54;;;;;;;7.05;2.22;;;7.40;99.90;;;;;;4900516;29;20029;-82
2022/01/23 14:09:22;;;;;;;5.60;1.80;;;7.40;99.90;;;;;;4898260;29;20163;-80
2022/01/23 14:11:48;;;;;;;4.55;1.35;;;7.40;99.90;;;;;;4899070;29;20531;-81
2022/01/23 14:14:17;;;;;;;5.43;1.70;;;7.40;99.90;;;;;;4898842;29;20021;-80
2022/01/23 14:16:44;;;;;;;5.68;1.50;;;7.40;99.90;;;;;;4898647;29;20496;-82
2022/01/23 14:19:24;;;;;;;5.10;1.80;;;7.30;99.90;;;;;;4898948;29;20037;-82
2022/01/23 14:22:02;;;;;;;6.57;2.50;;;7.30;99.90;;;;;;4899191;29;20029;-82
2022/01/23 14:24:34;;;;;;;5.97;1.40;;;7.30;99.90;;;;;;4900405;29;20036;-82
2022/01/23 14:27:10;;;;;;;4.65;1.38;;;7.20;99.90;;;;;;4901381;29;20032;-82
2022/01/23 14:29:51;;;;;;;4.75;1.45;;;7.20;99.90;;;;;;4898442;29;20063;-83
2022/01/23 14:32:30;;;;;;;6.97;2.00;;;7.20;99.90;;;;;;4898855;29;20037;-83
2022/01/23 14:35:13;;;;;;;6.38;1.80;;;7.20;99.90;;;;;;4898300;29;20104;-83
2022/01/23 14:37:41;;;;;;;5.90;1.52;;;7.20;99.90;;;;;;4899623;29;20024;-83
2022/01/23 14:40:10;;;;;;;5.40;2.03;;;7.20;99.90;;;;;;4899226;29;20035;-83
2022/01/23 14:42:35;;;;;;;6.55;2.17;;;7.20;99.90;;;;;;4913851;29;20052;-82
2022/01/23 14:45:07;;;;;;;5.47;1.80;;;7.20;99.90;;;;;;4899555;29;20469;-83
2022/01/23 14:47:37;;;;;;;4.32;1.33;;;7.10;99.90;;;;;;4914605;29;20040;-82
2022/01/23 14:50:10;;;;;;;4.78;1.67;;;7.10;99.90;;;;;;4913255;29;20374;-82
2022/01/23 14:52:41;;;;;;;6.28;1.80;;;7.00;99.90;;;;;;4913942;29;20043;-81
2022/01/23 14:55:08;;;;;;;4.68;1.40;;;7.00;99.90;;;;;;4913999;29;20112;-81
2022/01/23 14:57:34;;;;;;;13.20;6.50;;;7.00;99.90;;;;;;4913593;29;20037;-82
2022/01/23 15:00:05;;;;;;;7.13;2.90;;;7.00;99.90;;;;;;4912861;29;20392;-81
2022/01/23 15:02:30;;;;;;;5.88;1.98;;;7.00;99.90;;;;;;4897612;29;20035;-82
2022/01/23 15:04:58;;;;;;;29.33;15.10;;;7.00;99.90;;;;;;4913929;29;20068;-83
2022/01/23 15:07:24;;;;;;;41.33;23.15;;;7.00;99.90;;;;;;4898024;29;20057;-81
2022/01/23 15:09:51;;;;;;;49.10;27.02;;;6.90;99.90;;;;;;4913313;29;20116;-81
2022/01/23 15:12:17;;;;;;;43.13;24.42;;;6.90;99.90;;;;;;4897293;29;20055;-81
2022/01/23 15:14:43;;;;;;;23.30;13.27;;;6.90;99.90;;;;;;4898803;29;20088;-81
2022/01/23 15:17:10;;;;;;;85.93;42.40;;;6.90;99.90;;;;;;4897393;29;20482;-81
2022/01/23 15:19:36;;;;;;;27.08;13.15;;;6.90;99.90;;;;;;4913049;29;20081;-80
2022/01/23 15:22:03;;;;;;;41.63;23.40;;;6.90;99.90;;;;;;4897973;29;20051;-81
2022/01/23 15:24:28;;;;;;;20.27;12.77;;;6.90;99.90;;;;;;4912939;29;20033;-81
2022/01/23 15:26:54;;;;;;;12.10;6.95;;;6.80;99.90;;;;;;4881517;29;20075;-82
2022/01/23 15:29:20;;;;;;;11.10;6.88;;;6.80;99.90;;;;;;4913084;29;20087;-81
2022/01/23 15:31:47;;;;;;;11.70;5.70;;;6.80;99.90;;;;;;4913524;29;20167;-81
2022/01/23 15:34:15;;;;;;;9.63;5.45;;;6.80;99.90;;;;;;4913056;29;20061;-81
2022/01/23 15:36:41;;;;;;;7.13;4.00;;;6.80;99.90;;;;;;4897880;29;20036;-82
2022/01/23 15:39:07;;;;;;;8.10;4.18;;;6.70;99.90;;;;;;4912689;29;20033;-81
2022/01/23 15:41:33;;;;;;;10.80;5.13;;;6.70;99.90;;;;;;4897414;29;20033;-81
2022/01/23 15:43:58;;;;;;;8.52;4.45;;;6.70;99.90;;;;;;4913056;29;20041;-81
2022/01/23 15:46:27;;;;;;;9.77;6.32;;;6.70;99.90;;;;;;4913259;29;20384;-83
2022/01/23 15:48:53;;;;;;;8.95;5.22;;;6.60;99.90;;;;;;4882599;29;20181;-82
2022/01/23 15:51:18;;;;;;;10.45;8.38;;;6.70;99.90;;;;;;4897038;29;20143;-82
2022/01/23 15:53:44;;;;;;;11.82;7.43;;;6.60;99.90;;;;;;4913302;29;20033;-81
2022/01/23 15:56:10;;;;;;;8.60;6.03;;;6.60;99.90;;;;;;4898240;29;20038;-81
2022/01/23 15:58:36;;;;;;;10.40;6.38;;;6.60;99.90;;;;;;4898421;29;20056;-86
2022/01/23 16:01:02;;;;;;;18.70;9.45;;;6.60;99.90;;;;;;4897190;29;20033;-82
2022/01/23 16:03:30;;;;;;;9.18;5.90;;;6.60;99.90;;;;;;4912521;29;20033;-82
2022/01/23 16:05:57;;;;;;;7.80;4.95;;;6.60;99.90;;;;;;4912599;29;20075;-80
2022/01/23 16:08:24;;;;;;;9.50;4.38;;;6.50;99.90;;;;;;4896978;29;20029;-82
2022/01/23 16:10:50;;;;;;;10.98;6.30;;;6.50;99.90;;;;;;4898215;29;20032;-82
2022/01/23 16:13:15;;;;;;;21.13;9.82;;;6.50;99.90;;;;;;4911910;29;20140;-81
2022/01/23 16:15:43;;;;;;;21.55;13.85;;;6.50;99.90;;;;;;4912923;29;20112;-81
2022/01/23 16:18:10;;;;;;;16.17;9.93;;;6.50;99.90;;;;;;4912765;29;20029;-84
2022/01/23 16:20:37;;;;;;;10.77;6.22;;;6.50;99.90;;;;;;4896824;29;20445;-82
2022/01/23 16:23:04;;;;;;;10.00;6.22;;;6.40;99.90;;;;;;4912410;29;20080;-83
2022/01/23 16:25:30;;;;;;;9.57;6.78;;;6.40;99.90;;;;;;4897894;29;20029;-81